Weather at Fair Weather Field

Public forecast

Using degrees Fahrenheit for public forecast. Weather courtesy of forecast.io.

Closest aviation weather report (METAR) to Fair Weather Field

Closest report is Houston Executive Airport, 10.7 nm (19.9 km) SE.

2022/11/30 06:55 (retrieved 19 minutes ago)

KTME 300655Z AUTO 00000KT 1/4SM FG OVC002 21/21 A2997 RMK AO2

Closest aviation forecast (TAF) to Fair Weather Field

Closest forecast is Sugar Land Regional Airport, 27.5 nm (50.9 km) SE.

2022/11/30 06:34 (retrieved 40 minutes ago)

TAF KSGR 300532Z 3006/0106 22007KT 6SM BR OVC009 FM300800 29007KT 1SM BR BKN005 OVC025 FM301100 36014KT P6SM SCT015 BKN025 FM301400 01018G25KT P6SM FEW250 FM010200 03009KT P6SM FEW250